joomclub.org alexa rank chart, joomclub.org alexa rank daily changes

joomclub.org alexa rank chart, joomclub.org alexa rank daily changes

joomclub.org
Actual rank:
823 750

RANK HISTORY

Date Rank Diff
2017/07/28 823 750 -185
2017/07/27 823 935 +46 414
2017/07/26 777 521 -2 767
2017/07/25 780 288 +79 171
2017/07/24 701 117 -21 746
2017/07/23 722 863 -13 464
2017/07/22 736 327 +17 958
2017/07/21 718 369 +6 980
2017/07/20 711 389 +11 628
2017/07/19 699 761 -2 995
2017/07/18 702 756 +115
2017/07/17 702 641 +91 433
2017/07/16 611 208 +612
2017/07/15 610 596 +5 042
2017/07/14 605 554 +15 460
2017/07/13 590 094 +7 824
2017/07/12 582 270 +6 934
2017/07/11 575 336 +10 644
2017/07/10 564 692 -11 190
2017/07/09 575 882 -998
2017/07/08 576 880 +5 285
2017/07/07 571 595 +7 718
2017/07/06 563 877 +3
2017/07/05 563 874 -7 521
2017/07/04 571 395 -432
2017/07/03 571 827 +10 488
2017/07/02 561 339 +2 541
2017/07/01 558 798 +5 196
2017/06/30 553 602 -20 808
2017/06/29 574 410 -3 565
2017/06/28 577 975 +29 453
2017/06/27 548 522 -626
2017/06/26 549 148 -14 951
2017/06/25 564 099 -23 587
2017/06/24 587 686 +16 187
2017/06/23 571 499 -2 086
2017/06/22 573 585 +22 337
2017/06/21 551 248 -7 590
2017/06/20 558 838 -2 365
2017/06/19 561 203 +10 207
2017/06/18 550 996 +5 632
2017/06/17 545 364 -52 130
2017/06/16 597 494 +38 069
2017/06/15 559 425 -14 747
2017/06/14 574 172 -6 440
2017/06/13 580 612 -7 242
2017/06/12 587 854 +26 809
2017/06/11 561 045 +17 762
2017/06/10 543 283 +4 866
2017/06/09 538 417 +16 118
2017/06/08 522 299 -8 173
2017/06/07 530 472 +10 998
2017/06/06 519 474 -8 317
2017/06/05 527 791 +5 739
2017/06/04 522 052 +1 747
2017/06/03 520 305 -3 567
2017/06/02 523 872 +6 806
2017/06/01 517 066 +3 732
2017/05/31 513 334 -28 800
2017/05/30 542 134 -7 181
2017/05/29 549 315

WIDGET FOR YOUR SITE

DOMAINS WITH THE NEAREST RANK

Domain Rank
mrweirdandwacky.blogspot.co.uk 823 745
tramitesonline.org.ar 823 746
kaiptc.org 823 747
plantea.com.hr 823 748
bubnovsky.ru 823 749
joomclub.org 823 750
probiotix.ru 823 751
feadship.nl 823 752
dcfiorilli.com.br 823 753
accaspace.com 823 754
kocka.hu 823 755

DOMAINS WITH THE NEAREST RANK BY TLD .org

Domain Rank
zoofuck.org 823 626
tierracolombiana.org 823 678
triatlon.org 823 682
quiterss.org 823 740
kaiptc.org 823 747
joomclub.org 823 750
insurancequotes.org 823 790
ymcatvidaho.org 823 811
ijustcame.org 823 812
japancycling.org 823 816
learnjavathehardway.org 823 831